createdAt,value
2023-01-28T00:03:09.629Z,100006.38
2023-01-28T00:07:16.637Z,99996.25
2023-01-28T00:11:28.304Z,100001.22
2023-01-28T00:15:33.932Z,99992.94
2023-01-28T00:19:41.532Z,99994.88
2023-01-28T00:23:49.807Z,99998.56
2023-01-28T00:27:56.651Z,99996.28
2023-01-28T00:32:01.775Z,99983.75
2023-01-28T00:36:06.947Z,99989.56
2023-01-28T00:40:16.170Z,100000.53
2023-01-28T00:44:20.070Z,99994.13
2023-01-28T00:48:25.221Z,100000.94
2023-01-28T00:52:29.622Z,99987.28
2023-01-28T00:56:33.651Z,99976.25
2023-01-28T01:00:39.518Z,100002.06
2023-01-28T01:04:55.119Z,100000.75
2023-01-28T01:08:58.292Z,99985.84
2023-01-28T01:13:02.953Z,100001.22
2023-01-28T01:17:06.384Z,99998.31
2023-01-28T01:21:14.556Z,100000.59
2023-01-28T01:25:19.710Z,99993.72
2023-01-28T01:29:23.510Z,99977.69
2023-01-28T01:33:26.810Z,99980.81
2023-01-28T01:37:31.991Z,99970.25
2023-01-28T01:41:35.869Z,100010.84
2023-01-28T01:45:42.678Z,100013.63
2023-01-28T01:49:47.818Z,100004.53
2023-01-28T01:53:54.880Z,100007.72
2023-01-28T01:58:13.927Z,100010.34
2023-01-28T02:02:20.077Z,99980.00
2023-01-28T02:06:25.108Z,100014.31
2023-01-28T02:10:30.528Z,100014.31
2023-01-28T02:14:36.428Z,99994.63
2023-01-28T02:18:40.257Z,100017.63
2023-01-28T02:23:03.738Z,100017.25
2023-01-28T02:27:25.424Z,100009.78
2023-01-28T02:31:37.550Z,100017.50
2023-01-28T02:35:50.209Z,100005.78
2023-01-28T02:39:56.800Z,100015.34
2023-01-28T02:44:04.283Z,100011.13
2023-01-28T02:48:08.897Z,100016.63
2023-01-28T02:52:49.952Z,100012.88
2023-01-28T02:57:03.609Z,100001.31
2023-01-28T03:01:23.546Z,100009.75
2023-01-28T03:05:32.820Z,100018.66
2023-01-28T03:09:38.066Z,100022.25
2023-01-28T03:14:02.527Z,99994.19
2023-01-28T03:18:26.466Z,100019.88
2023-01-28T03:22:53.461Z,100023.44
2023-01-28T03:27:19.526Z,100022.03
2023-01-28T03:31:47.259Z,100034.31
2023-01-28T03:36:08.562Z,100028.22
2023-01-28T03:40:20.511Z,100031.13
2023-01-28T03:44:41.747Z,100043.88
2023-01-28T03:48:45.473Z,100044.00
2023-01-28T03:52:48.907Z,100049.38
2023-01-28T03:56:54.248Z,100045.31
2023-01-28T04:01:06.045Z,100043.22
2023-01-28T04:05:15.000Z,100061.19
2023-01-28T04:09:27.428Z,100057.38
2023-01-28T04:13:33.257Z,100047.16
2023-01-28T04:17:37.054Z,100055.44
2023-01-28T04:21:41.132Z,100059.34
2023-01-28T04:25:44.663Z,100066.28
2023-01-28T04:29:49.809Z,100075.06
2023-01-28T04:33:53.440Z,100083.06
2023-01-28T04:38:03.863Z,100090.22
2023-01-28T04:42:10.580Z,100089.94
2023-01-28T04:46:15.563Z,100096.44
2023-01-28T04:50:19.239Z,100099.38
2023-01-28T04:54:22.275Z,100082.59
2023-01-28T04:58:26.493Z,100092.56
2023-01-28T05:02:31.536Z,100083.97
2023-01-28T05:06:35.490Z,100106.56
2023-01-28T05:10:40.568Z,100096.78
2023-01-28T05:14:43.871Z,100105.59
2023-01-28T05:18:51.647Z,100113.75
2023-01-28T05:22:55.964Z,100104.28
2023-01-28T05:27:01.228Z,100110.44
2023-01-28T05:31:05.997Z,100105.16
2023-01-28T05:35:19.005Z,100110.69
2023-01-28T05:39:22.589Z,100119.59
2023-01-28T05:43:26.467Z,100119.81
2023-01-28T05:47:30.277Z,100111.56
2023-01-28T05:51:35.359Z,100094.97
2023-01-28T05:55:38.894Z,100121.13
2023-01-28T05:59:42.409Z,100125.72
2023-01-28T06:03:45.902Z,100129.28
2023-01-28T06:07:51.319Z,100136.34
2023-01-28T06:11:54.649Z,100145.72
2023-01-28T06:15:58.097Z,100144.19
2023-01-28T06:20:01.659Z,100147.78
2023-01-28T06:24:07.214Z,100153.94
2023-01-28T06:28:10.797Z,100164.53
2023-01-28T06:32:17.952Z,100153.28
2023-01-28T06:36:21.301Z,100153.75
2023-01-28T06:40:26.337Z,100164.38
2023-01-28T06:44:29.777Z,100153.50
2023-01-28T06:48:32.530Z,100135.56
2023-01-28T06:52:35.697Z,100142.28
2023-01-28T06:56:39.939Z,100167.19
2023-01-28T07:00:45.919Z,100182.81
2023-01-28T07:04:48.795Z,100190.28
2023-01-28T07:08:51.836Z,100165.91
2023-01-28T07:12:56.151Z,100195.81
2023-01-28T07:16:59.098Z,100183.16
2023-01-28T07:21:02.755Z,100186.88
2023-01-28T07:25:07.241Z,100201.69
2023-01-28T07:29:11.835Z,100200.72
2023-01-28T07:33:15.081Z,100180.53
2023-01-28T07:37:18.417Z,100199.41
2023-01-28T07:41:22.275Z,100212.78
2023-01-28T07:45:28.767Z,100196.00
2023-01-28T07:49:32.533Z,100209.00
2023-01-28T07:53:35.948Z,100209.19
2023-01-28T07:57:38.834Z,100211.78
2023-01-28T08:01:43.452Z,100188.81
2023-01-28T08:05:48.201Z,100204.91
2023-01-28T08:09:52.339Z,100218.13
2023-01-28T08:13:58.441Z,100170.56
2023-01-28T08:18:02.612Z,100209.00
2023-01-28T08:22:05.934Z,100222.69
2023-01-28T08:26:09.944Z,100223.28
2023-01-28T08:30:14.164Z,100224.91
2023-01-28T08:34:19.952Z,100224.91
2023-01-28T08:38:23.536Z,100228.50
2023-01-28T08:42:28.446Z,100218.25
2023-01-28T08:46:36.426Z,100225.69
2023-01-28T08:50:41.989Z,100226.78
2023-01-28T08:54:49.115Z,100213.13
2023-01-28T08:58:52.517Z,100223.56
2023-01-28T09:02:56.247Z,100234.16
2023-01-28T09:07:02.133Z,100229.28
2023-01-28T09:11:06.105Z,100230.91
2023-01-28T09:15:11.591Z,100225.22
2023-01-28T09:19:15.777Z,100231.06
2023-01-28T09:23:28.670Z,100253.50
2023-01-28T09:27:35.726Z,100233.50
2023-01-28T09:31:47.518Z,100253.03
2023-01-28T09:35:53.639Z,100261.13
2023-01-28T09:39:59.355Z,100266.88
2023-01-28T09:44:10.637Z,100233.53
2023-01-28T09:48:26.273Z,100264.94
2023-01-28T09:52:32.868Z,100282.88
2023-01-28T09:56:47.285Z,100296.25
2023-01-28T10:00:56.046Z,100238.25
2023-01-28T10:05:12.742Z,100290.00
2023-01-28T10:09:35.502Z,100287.50
2023-01-28T10:13:50.247Z,100286.00
2023-01-28T10:18:16.423Z,100291.19
2023-01-28T10:22:26.175Z,100269.50
2023-01-28T10:26:45.502Z,100289.41
2023-01-28T10:30:53.684Z,100263.56
2023-01-28T10:34:59.902Z,100282.69
2023-01-28T10:39:03.757Z,100283.81
2023-01-28T10:43:10.173Z,100277.06
2023-01-28T10:47:26.060Z,100272.28
2023-01-28T10:51:47.215Z,100284.28
2023-01-28T10:55:56.516Z,100286.59
2023-01-28T11:00:01.232Z,100289.06
2023-01-28T11:04:08.592Z,100283.13
2023-01-28T11:08:20.006Z,100287.03
2023-01-28T11:12:30.347Z,100275.28
2023-01-28T11:16:50.280Z,100290.34
2023-01-28T11:21:02.287Z,100303.75
2023-01-28T11:25:19.637Z,100293.19
2023-01-28T11:29:30.464Z,100295.22
2023-01-28T11:33:40.820Z,100293.59
2023-01-28T11:37:51.254Z,100297.13
2023-01-28T11:41:55.711Z,100298.44
2023-01-28T11:46:23.627Z,100307.19
2023-01-28T11:50:45.009Z,100288.47
2023-01-28T11:55:02.345Z,100287.06
2023-01-28T11:59:22.956Z,100282.88
2023-01-28T12:03:51.461Z,100274.28
2023-01-28T12:08:06.787Z,100271.66
2023-01-28T12:12:24.723Z,100265.56
2023-01-28T12:17:04.995Z,100268.03
2023-01-28T12:48:53.049Z,100248.56
2023-01-28T12:53:01.830Z,100248.59
2023-01-28T12:57:06.079Z,100252.84
2023-01-28T13:01:15.824Z,100247.75
2023-01-28T13:05:31.835Z,100244.88
2023-01-28T13:09:43.981Z,100235.41
2023-01-28T13:13:48.494Z,100248.41
2023-01-28T13:18:00.110Z,100250.06
2023-01-28T13:22:14.915Z,100245.50
2023-01-28T13:26:33.007Z,100236.38
2023-01-28T13:30:49.564Z,100261.22
2023-01-28T13:34:59.981Z,100267.56
2023-01-28T13:39:08.758Z,100249.59
2023-01-28T13:43:42.949Z,100277.81
2023-01-28T13:47:50.867Z,100289.56
2023-01-28T13:52:00.897Z,100278.91
2023-01-28T13:56:09.516Z,100309.03
2023-01-28T14:00:22.223Z,100308.53
2023-01-28T14:04:42.269Z,100306.63
2023-01-28T14:09:12.424Z,100317.72
2023-01-28T14:13:41.245Z,100299.03
2023-01-28T14:17:46.499Z,100319.19
2023-01-28T14:21:50.465Z,100305.69
2023-01-28T14:26:15.978Z,100336.69
2023-01-28T14:30:25.909Z,100335.56
2023-01-28T14:34:33.165Z,100327.41
2023-01-28T14:38:40.922Z,100316.97
2023-01-28T14:42:48.028Z,100324.00
2023-01-28T14:47:02.282Z,100344.69
2023-01-28T14:51:38.629Z,100339.81
2023-01-28T14:55:49.894Z,100341.59
2023-01-28T14:59:58.856Z,100342.59
2023-01-28T15:04:05.820Z,100342.13
2023-01-28T15:08:09.730Z,100336.06
2023-01-28T15:12:13.572Z,100323.38
2023-01-28T15:16:23.774Z,100322.22
2023-01-28T15:20:29.056Z,100319.47
2023-01-28T15:24:33.318Z,100331.84
2023-01-28T15:28:39.039Z,100330.88
2023-01-28T15:32:42.952Z,100324.84
2023-01-28T15:36:51.178Z,100344.88
2023-01-28T15:40:57.375Z,100335.72
2023-01-28T15:45:00.811Z,100334.41
2023-01-28T15:49:04.909Z,100332.44
2023-01-28T15:53:11.575Z,100346.63
2023-01-28T15:57:20.324Z,100342.41
2023-01-28T16:01:24.699Z,100343.19
2023-01-28T16:05:30.123Z,100354.28
2023-01-28T16:09:37.999Z,100347.75
2023-01-28T16:13:46.400Z,100349.19
2023-01-28T16:17:51.951Z,100355.19
2023-01-28T16:21:55.069Z,100350.97
2023-01-28T16:26:03.553Z,100347.06
2023-01-28T16:30:07.628Z,100365.13
2023-01-28T16:34:11.974Z,100355.03
2023-01-28T16:38:17.279Z,100363.47
2023-01-28T16:42:29.852Z,100380.44
2023-01-28T16:46:33.552Z,100382.41
2023-01-28T16:50:37.050Z,100372.19
2023-01-28T16:54:41.033Z,100391.97
2023-01-28T16:58:46.950Z,100384.47
2023-01-28T17:02:51.073Z,100386.72
2023-01-28T17:06:54.493Z,100394.00
2023-01-28T17:10:58.811Z,100389.50
2023-01-28T17:15:04.720Z,100386.06
2023-01-28T17:19:08.735Z,100390.78
2023-01-28T17:23:16.104Z,100369.22
2023-01-28T17:27:22.717Z,100394.63
2023-01-28T17:31:28.688Z,100376.72
2023-01-28T17:35:32.384Z,100415.31
2023-01-28T17:39:36.236Z,100405.34
2023-01-28T17:43:39.845Z,100401.44
2023-01-28T17:47:45.425Z,100405.72
2023-01-28T17:51:49.153Z,100401.44
2023-01-28T17:55:52.662Z,100400.16
2023-01-28T17:59:56.534Z,100396.75
2023-01-28T18:04:01.859Z,100366.63
2023-01-28T18:08:05.604Z,100406.00
2023-01-28T18:12:12.716Z,100408.59
2023-01-28T18:16:18.278Z,100420.91
2023-01-28T18:20:23.561Z,100424.47
2023-01-28T18:24:29.289Z,100436.41
2023-01-28T18:28:43.868Z,100438.88
2023-01-28T18:32:47.831Z,100436.06
2023-01-28T18:36:52.897Z,100456.94
2023-01-28T18:40:58.167Z,100467.59
2023-01-28T18:45:02.291Z,100472.28
2023-01-28T18:49:13.723Z,100486.28
2023-01-28T18:53:27.464Z,100481.88
2023-01-28T18:57:31.999Z,100490.66
2023-01-28T19:01:39.661Z,100488.03
2023-01-28T19:05:43.819Z,100478.22
2023-01-28T19:09:49.416Z,100484.09
2023-01-28T19:13:53.116Z,100467.44
2023-01-28T19:17:56.840Z,100482.50
2023-01-28T19:22:00.771Z,100485.47
2023-01-28T19:26:06.725Z,100486.91
2023-01-28T19:30:14.261Z,100482.47
2023-01-28T19:34:18.725Z,100499.25
2023-01-28T19:38:24.295Z,100494.81
2023-01-28T19:42:30.033Z,100503.28
2023-01-28T19:46:37.552Z,100515.44
2023-01-28T19:50:41.143Z,100508.31
2023-01-28T19:54:44.606Z,100507.06
2023-01-28T19:58:50.137Z,100499.16
2023-01-28T20:02:53.863Z,100500.38
2023-01-28T20:06:57.431Z,100507.94
2023-01-28T20:11:05.613Z,100504.75
2023-01-28T20:15:15.339Z,100507.16
2023-01-28T20:19:20.901Z,100504.53
2023-01-28T20:23:24.999Z,100501.66
2023-01-28T20:27:31.844Z,100503.03
2023-01-28T20:31:43.431Z,100494.53
2023-01-28T20:36:05.790Z,100505.94
2023-01-28T20:40:10.678Z,100508.69
2023-01-28T20:44:14.578Z,100513.31
2023-01-28T20:48:19.164Z,100508.31
2023-01-28T20:52:26.484Z,100479.94
2023-01-28T20:56:31.287Z,100522.28
2023-01-28T21:00:35.041Z,100526.22
2023-01-28T21:04:40.587Z,100530.69
2023-01-28T21:08:45.147Z,100522.59
2023-01-28T21:12:48.760Z,100547.25
2023-01-28T21:17:05.533Z,100541.66
2023-01-28T21:21:20.036Z,100529.34
2023-01-28T21:25:29.934Z,100521.78
2023-01-28T21:29:37.186Z,100522.38
2023-01-28T21:33:46.666Z,100536.25
2023-01-28T21:37:55.377Z,100511.78
2023-01-28T21:41:58.761Z,100531.25
2023-01-28T21:46:09.241Z,100535.44
2023-01-28T21:50:26.497Z,100529.41
2023-01-28T21:54:35.045Z,100523.13
2023-01-28T21:58:59.236Z,100523.25
2023-01-28T22:03:06.091Z,100523.69
2023-01-28T22:07:11.524Z,100520.13
2023-01-28T22:11:16.274Z,100501.84
2023-01-28T22:15:21.198Z,100509.44
2023-01-28T22:19:30.189Z,100509.66
2023-01-28T22:23:39.871Z,100498.03
2023-01-28T22:27:44.983Z,100496.88
2023-01-28T22:32:01.867Z,100496.44
2023-01-28T22:36:13.956Z,100499.47
2023-01-28T22:40:23.708Z,100495.97
2023-01-28T22:44:29.368Z,100491.66
2023-01-28T22:48:32.638Z,100484.13
2023-01-28T22:52:39.354Z,100492.13
2023-01-28T22:56:43.864Z,100462.78
2023-01-28T23:00:48.903Z,100490.03
2023-01-28T23:04:55.151Z,100488.09
2023-01-28T23:08:58.496Z,100465.25
2023-01-28T23:13:21.906Z,100476.31
2023-01-28T23:17:46.275Z,100480.97
2023-01-28T23:22:10.317Z,100479.94
2023-01-28T23:26:14.270Z,100477.41
2023-01-28T23:30:18.376Z,100491.38
2023-01-28T23:34:24.721Z,100482.69
2023-01-28T23:38:31.318Z,100480.91
2023-01-28T23:42:37.745Z,100488.03
2023-01-28T23:46:44.790Z,100488.53
2023-01-28T23:50:49.861Z,100458.94
2023-01-28T23:54:53.356Z,100490.44
2023-01-28T23:58:58.813Z,100486.44
